createdAt,value
2022-11-05T00:01:14.143Z,28.70
2022-11-05T00:04:00.930Z,26.70
2022-11-05T00:06:48.025Z,25.30
2022-11-05T00:09:31.176Z,31.30
2022-11-05T00:12:30.220Z,32.70
2022-11-05T00:15:16.694Z,29.50
2022-11-05T00:17:44.649Z,32.10
2022-11-05T00:20:13.805Z,31.00
2022-11-05T00:23:00.475Z,26.50
2022-11-05T00:25:30.068Z,30.80
2022-11-05T00:28:02.240Z,32.60
2022-11-05T00:30:30.558Z,29.20
2022-11-05T00:33:04.923Z,28.60
2022-11-05T00:35:32.922Z,27.10
2022-11-05T00:38:00.864Z,28.80
2022-11-05T00:40:28.909Z,31.50
2022-11-05T00:43:15.746Z,25.60
2022-11-05T00:45:45.223Z,28.70
2022-11-05T00:48:32.573Z,28.60
2022-11-05T00:51:00.662Z,31.50
2022-11-05T00:53:28.612Z,29.70
2022-11-05T00:55:56.729Z,33.50
2022-11-05T00:58:24.672Z,32.60
2022-11-05T01:00:54.519Z,28.30
2022-11-05T01:03:30.809Z,27.30
2022-11-05T01:06:11.227Z,27.80
2022-11-05T01:08:43.371Z,25.00
2022-11-05T01:11:37.364Z,31.40
2022-11-05T01:14:16.242Z,27.90
2022-11-05T01:16:45.652Z,32.50
2022-11-05T01:19:14.553Z,31.60
2022-11-05T01:21:44.673Z,29.50
2022-11-05T01:24:12.644Z,33.40
2022-11-05T01:26:41.060Z,28.50
2022-11-05T01:29:10.880Z,29.00
2022-11-05T01:31:39.004Z,31.50
2022-11-05T01:34:06.972Z,34.50
2022-11-05T01:36:34.790Z,29.20
2022-11-05T01:39:02.909Z,33.70
2022-11-05T01:41:33.064Z,32.90
2022-11-05T01:44:05.001Z,34.10
2022-11-05T01:46:42.968Z,32.60
2022-11-05T01:49:17.982Z,33.80
2022-11-05T01:51:46.117Z,32.90
2022-11-05T01:54:16.908Z,48.70
2022-11-05T01:56:56.684Z,36.30
2022-11-05T01:59:39.615Z,32.50
2022-11-05T02:02:09.518Z,31.70
2022-11-05T02:04:45.056Z,32.40
2022-11-05T02:07:13.218Z,34.70
2022-11-05T02:09:47.299Z,32.30
2022-11-05T02:12:15.533Z,34.70
2022-11-05T02:14:43.472Z,32.50
2022-11-05T02:17:45.046Z,32.90
2022-11-05T02:20:41.996Z,33.30
2022-11-05T02:23:47.574Z,36.60
2022-11-05T02:26:59.541Z,30.90
2022-11-05T02:30:09.819Z,31.20
2022-11-05T02:36:15.271Z,29.60
2022-11-05T02:39:39.665Z,30.70
2022-11-05T02:42:45.004Z,27.20
2022-11-05T02:45:40.010Z,28.80
2022-11-05T02:48:50.481Z,30.80
2022-11-05T02:51:54.189Z,26.60
2022-11-05T02:54:30.647Z,29.40
2022-11-05T02:56:59.072Z,29.40
2022-11-05T02:59:27.724Z,25.40
2022-11-05T03:01:56.079Z,29.10
2022-11-05T03:04:24.282Z,28.80
2022-11-05T03:07:38.655Z,29.30
2022-11-05T03:10:46.268Z,30.40
2022-11-05T03:13:21.603Z,27.00
2022-11-05T03:15:58.959Z,27.70
2022-11-05T03:18:39.025Z,28.50
2022-11-05T03:21:20.180Z,27.10
2022-11-05T03:24:08.273Z,28.10
2022-11-05T03:26:46.406Z,28.70
2022-11-05T03:29:25.667Z,28.20
2022-11-05T03:31:55.533Z,29.00
2022-11-05T03:34:50.104Z,23.80
2022-11-05T03:37:19.594Z,27.00
2022-11-05T03:39:51.589Z,21.60
2022-11-05T03:42:24.010Z,22.10
2022-11-05T03:44:54.755Z,18.90
2022-11-05T03:47:25.905Z,20.70
2022-11-05T03:50:41.103Z,18.80
2022-11-05T03:53:32.498Z,20.40
2022-11-05T03:56:46.421Z,14.20
2022-11-05T03:59:14.489Z,14.10
2022-11-05T04:01:42.718Z,13.00
2022-11-05T04:04:11.253Z,13.40
2022-11-05T04:07:01.459Z,13.20
2022-11-05T04:09:48.757Z,17.50
2022-11-05T04:12:36.495Z,12.30
2022-11-05T04:15:07.826Z,14.70
2022-11-05T04:17:35.735Z,11.90
2022-11-05T04:20:22.907Z,14.30
2022-11-05T04:23:22.343Z,14.50
2022-11-05T04:25:50.439Z,12.90
2022-11-05T04:28:18.365Z,14.90
2022-11-05T04:30:46.543Z,12.60
2022-11-05T04:33:16.243Z,13.40
2022-11-05T04:35:49.078Z,13.50
2022-11-05T04:38:19.156Z,14.50
2022-11-05T04:40:47.934Z,13.20
2022-11-05T04:43:18.926Z,11.80
2022-11-05T04:45:47.160Z,12.50
2022-11-05T04:48:15.309Z,13.50
2022-11-05T04:50:43.504Z,14.00
2022-11-05T04:53:12.085Z,14.30
2022-11-05T04:55:40.239Z,13.40
2022-11-05T04:58:08.921Z,13.80
2022-11-05T05:00:39.246Z,12.80
2022-11-05T05:03:07.367Z,14.20
2022-11-05T05:05:35.706Z,13.90
2022-11-05T05:08:06.673Z,14.10
2022-11-05T05:10:38.616Z,13.90
2022-11-05T05:13:06.804Z,14.30
2022-11-05T05:15:34.827Z,14.60
2022-11-05T05:18:02.780Z,13.10
2022-11-05T05:20:49.643Z,14.80
2022-11-05T05:23:17.919Z,13.90
2022-11-05T05:25:46.189Z,16.40
2022-11-05T05:28:14.159Z,14.50
2022-11-05T05:30:42.270Z,15.80
2022-11-05T05:33:10.715Z,16.50
2022-11-05T05:35:39.298Z,16.40
2022-11-05T05:38:07.247Z,17.90
2022-11-05T05:40:35.236Z,16.50
2022-11-05T05:43:03.209Z,16.50
2022-11-05T05:45:31.165Z,18.50
2022-11-05T05:47:59.054Z,16.40
2022-11-05T05:50:26.898Z,19.50
2022-11-05T05:52:54.834Z,17.60
2022-11-05T05:55:23.280Z,18.10
2022-11-05T05:57:51.367Z,18.20
2022-11-05T06:00:19.433Z,17.50
2022-11-05T06:02:47.626Z,17.20
2022-11-05T06:05:16.045Z,17.50
2022-11-05T06:07:44.019Z,17.90
2022-11-05T06:10:12.049Z,19.40
2022-11-05T06:12:40.027Z,21.30
2022-11-05T06:15:08.711Z,21.50
2022-11-05T06:17:36.704Z,21.60
2022-11-05T06:20:06.025Z,23.50
2022-11-05T06:22:33.888Z,20.90
2022-11-05T06:25:02.056Z,19.80
2022-11-05T06:27:29.985Z,21.30
2022-11-05T06:29:59.124Z,25.00
2022-11-05T06:32:27.280Z,21.60
2022-11-05T06:34:55.289Z,22.70
2022-11-05T06:37:24.046Z,23.20
2022-11-05T06:39:52.042Z,20.90
2022-11-05T06:42:20.041Z,23.60
2022-11-05T06:44:48.256Z,26.10
2022-11-05T06:47:16.111Z,22.30
2022-11-05T06:49:44.526Z,24.30
2022-11-05T06:52:13.589Z,25.30
2022-11-05T06:54:42.514Z,24.20
2022-11-05T06:57:11.329Z,24.90
2022-11-05T06:59:39.498Z,23.20
2022-11-05T07:02:07.695Z,26.50
2022-11-05T07:04:35.752Z,21.90
2022-11-05T07:07:03.791Z,24.50
2022-11-05T07:09:32.762Z,21.80
2022-11-05T07:12:00.722Z,22.30
2022-11-05T07:14:28.992Z,23.90
2022-11-05T07:16:57.780Z,22.40
2022-11-05T07:19:25.810Z,20.80
2022-11-05T07:21:55.370Z,22.10
2022-11-05T07:24:28.137Z,21.20
2022-11-05T07:26:58.264Z,19.00
2022-11-05T07:29:29.649Z,24.00
2022-11-05T07:32:00.564Z,26.00
2022-11-05T07:34:28.737Z,27.30
2022-11-05T07:36:59.993Z,26.40
2022-11-05T07:39:28.588Z,30.00
2022-11-05T07:41:57.950Z,37.30
2022-11-05T07:44:31.972Z,45.00
2022-11-05T07:46:59.804Z,43.10
2022-11-05T07:49:27.702Z,51.00
2022-11-05T07:51:55.575Z,42.60
2022-11-05T07:54:26.603Z,44.60
2022-11-05T07:56:55.489Z,48.60
2022-11-05T07:59:23.353Z,56.50
2022-11-05T08:01:53.012Z,52.10
2022-11-05T08:04:21.652Z,58.60
2022-11-05T08:06:49.823Z,57.80
2022-11-05T08:09:18.610Z,63.00
2022-11-05T08:11:49.575Z,52.10
2022-11-05T08:14:20.098Z,54.30
2022-11-05T08:16:48.042Z,51.10
2022-11-05T08:19:15.926Z,58.70
2022-11-05T08:21:43.735Z,67.90
2022-11-05T08:24:11.755Z,53.30
2022-11-05T08:26:39.451Z,50.50
2022-11-05T08:29:07.267Z,52.20
2022-11-05T08:31:37.265Z,52.40
2022-11-05T08:34:05.166Z,49.70
2022-11-05T08:36:35.313Z,48.20
2022-11-05T08:39:03.324Z,46.60
2022-11-05T08:41:31.214Z,54.60
2022-11-05T08:43:59.011Z,49.30
2022-11-05T08:46:26.804Z,44.20
2022-11-05T08:48:54.655Z,43.80
2022-11-05T08:51:22.478Z,44.10
2022-11-05T08:53:50.305Z,42.80
2022-11-05T08:56:18.315Z,38.70
2022-11-05T08:58:46.689Z,36.80
2022-11-05T09:01:14.844Z,35.20
2022-11-05T09:03:43.168Z,38.90
2022-11-05T09:06:11.411Z,32.00
2022-11-05T09:08:39.249Z,34.40
2022-11-05T09:11:07.157Z,39.60
2022-11-05T09:13:35.119Z,30.00
2022-11-05T09:16:03.719Z,34.70
2022-11-05T09:18:31.669Z,31.20
2022-11-05T09:20:59.492Z,35.10
2022-11-05T09:23:27.404Z,32.70
2022-11-05T09:25:55.360Z,30.80
2022-11-05T09:28:24.708Z,32.10
2022-11-05T09:30:53.115Z,28.30
2022-11-05T09:33:24.023Z,32.00
2022-11-05T09:35:52.867Z,32.60
2022-11-05T09:38:20.975Z,26.10
2022-11-05T09:40:58.123Z,30.60
2022-11-05T09:43:37.793Z,31.10
2022-11-05T09:46:12.650Z,30.30
2022-11-05T09:48:40.771Z,30.90
2022-11-05T09:51:08.639Z,30.90
2022-11-05T09:53:41.218Z,35.20
2022-11-05T09:56:31.482Z,30.80
2022-11-05T09:59:14.113Z,32.00
2022-11-05T10:01:42.395Z,27.40
2022-11-05T10:04:21.206Z,28.10
2022-11-05T10:06:54.335Z,28.10
2022-11-05T10:09:52.170Z,35.00
2022-11-05T10:12:32.195Z,30.50
2022-11-05T10:15:22.723Z,35.00
2022-11-05T10:17:58.986Z,36.90
2022-11-05T10:20:36.690Z,33.70
2022-11-05T10:23:17.464Z,32.10
2022-11-05T10:25:55.115Z,26.40
2022-11-05T10:28:29.853Z,40.30
2022-11-05T10:31:07.318Z,83.10
2022-11-05T10:33:54.957Z,234.90
2022-11-05T10:36:34.342Z,243.10
2022-11-05T10:39:11.678Z,149.20
2022-11-05T10:42:19.223Z,123.20
2022-11-05T10:44:53.941Z,71.40
2022-11-05T10:47:47.000Z,235.00
2022-11-05T10:50:19.176Z,140.60
2022-11-05T10:53:16.300Z,175.70
2022-11-05T10:55:47.106Z,244.90
2022-11-05T10:58:18.137Z,243.30
2022-11-05T11:00:52.365Z,112.00
2022-11-05T11:03:46.819Z,72.00
2022-11-05T11:06:28.558Z,48.10
2022-11-05T11:09:06.596Z,41.30
2022-11-05T11:11:38.198Z,122.20
2022-11-05T11:14:12.367Z,177.20
2022-11-05T11:16:45.459Z,424.80
2022-11-05T11:19:33.693Z,397.00
2022-11-05T11:22:04.633Z,654.00
2022-11-05T11:24:50.317Z,195.20
2022-11-05T11:27:26.245Z,203.70
2022-11-05T11:30:05.180Z,231.20
2022-11-05T11:32:41.664Z,243.20
2022-11-05T11:35:21.434Z,88.80
2022-11-05T11:37:53.956Z,118.80
2022-11-05T11:40:31.467Z,54.00
2022-11-05T11:43:03.353Z,50.70
2022-11-05T11:45:45.787Z,184.80
2022-11-05T11:48:38.187Z,169.30
2022-11-05T11:51:22.236Z,424.30
2022-11-05T11:53:50.098Z,297.40
2022-11-05T11:56:20.055Z,310.10
2022-11-05T11:58:53.994Z,442.30
2022-11-05T12:01:52.323Z,381.30
2022-11-05T12:05:24.323Z,346.70
2022-11-05T12:07:55.544Z,203.80
2022-11-05T12:10:55.616Z,288.40
2022-11-05T12:13:51.512Z,222.70
2022-11-05T12:16:25.129Z,258.20
2022-11-05T12:19:21.597Z,216.00
2022-11-05T12:22:10.625Z,182.10
2022-11-05T12:25:21.611Z,151.20
2022-11-05T12:28:11.034Z,153.20
2022-11-05T12:30:53.584Z,99.00
2022-11-05T12:33:31.851Z,77.10
2022-11-05T12:37:10.149Z,64.10
2022-11-05T12:40:12.862Z,58.90
2022-11-05T12:42:50.023Z,101.10
2022-11-05T12:45:27.414Z,187.60
2022-11-05T12:48:10.853Z,110.60
2022-11-05T12:51:10.396Z,151.70
2022-11-05T12:54:09.459Z,112.60
2022-11-05T12:56:57.815Z,52.30
2022-11-05T13:00:04.621Z,48.70
2022-11-05T13:02:45.438Z,45.70
2022-11-05T13:05:28.338Z,36.70
2022-11-05T13:08:08.637Z,39.30
2022-11-05T13:10:52.455Z,24.10
2022-11-05T13:13:38.379Z,26.30
2022-11-05T13:16:22.318Z,23.70
2022-11-05T13:18:58.025Z,25.50
2022-11-05T13:21:29.079Z,22.10
2022-11-05T13:24:22.065Z,26.50
2022-11-05T13:27:11.494Z,28.00
2022-11-05T13:33:15.096Z,98.20
2022-11-05T13:36:34.126Z,69.30
2022-11-05T13:39:17.254Z,31.80
2022-11-05T13:42:03.810Z,21.50
2022-11-05T13:44:58.351Z,16.80
2022-11-05T13:48:15.644Z,42.40
2022-11-05T13:51:28.875Z,26.00
2022-11-05T13:54:34.764Z,64.90
2022-11-05T13:57:51.745Z,51.40
2022-11-05T14:00:22.553Z,67.10
2022-11-05T14:02:57.835Z,67.50
2022-11-05T14:05:38.911Z,63.30
2022-11-05T14:08:18.088Z,81.90
2022-11-05T14:11:07.908Z,86.00
2022-11-05T14:13:38.534Z,40.90
2022-11-05T14:16:21.520Z,23.10
2022-11-05T14:19:20.338Z,67.60
2022-11-05T14:21:52.035Z,63.30
2022-11-05T14:24:25.054Z,32.50
2022-11-05T14:27:02.379Z,35.10
2022-11-05T14:29:46.290Z,47.80
2022-11-05T14:32:17.055Z,41.50
2022-11-05T14:35:21.481Z,45.20
2022-11-05T14:37:54.132Z,16.80
2022-11-05T14:40:21.954Z,13.80
2022-11-05T14:42:55.324Z,20.10
2022-11-05T14:45:35.089Z,46.80
2022-11-05T14:48:27.327Z,31.20
2022-11-05T14:50:55.181Z,28.30
2022-11-05T14:53:34.657Z,23.80
2022-11-05T14:56:13.020Z,16.10
2022-11-05T14:58:42.450Z,15.70
2022-11-05T15:01:13.370Z,16.30
2022-11-05T15:03:45.825Z,18.80
2022-11-05T15:06:27.219Z,30.70
2022-11-05T15:09:13.541Z,29.10
2022-11-05T15:11:56.964Z,51.90
2022-11-05T15:14:32.118Z,52.10
2022-11-05T15:17:34.761Z,49.50
2022-11-05T15:20:22.278Z,75.90
2022-11-05T15:23:01.350Z,36.80
2022-11-05T15:25:42.142Z,39.60
2022-11-05T15:28:40.778Z,15.70
2022-11-05T15:31:14.731Z,13.90
2022-11-05T15:33:44.956Z,16.50
2022-11-05T15:36:29.468Z,92.10
2022-11-05T15:39:27.470Z,87.60
2022-11-05T15:41:46.658Z,82.00
2022-11-05T15:44:26.087Z,30.90
2022-11-05T15:47:13.610Z,19.40
2022-11-05T15:49:48.276Z,15.80
2022-11-05T15:52:19.566Z,18.00
2022-11-05T15:55:08.358Z,16.00
2022-11-05T15:57:40.423Z,12.50
2022-11-05T16:00:19.775Z,13.70
2022-11-05T16:02:59.237Z,17.50
2022-11-05T16:05:30.459Z,18.00
2022-11-05T16:07:59.750Z,62.80
2022-11-05T16:10:34.590Z,19.60
2022-11-05T16:13:32.280Z,35.60
2022-11-05T16:16:03.452Z,27.60
2022-11-05T16:18:34.851Z,26.00
2022-11-05T16:21:07.344Z,31.20
2022-11-05T16:23:59.279Z,28.50
2022-11-05T16:29:39.856Z,44.00
2022-11-05T16:32:31.544Z,33.60
2022-11-05T16:35:02.131Z,28.00
2022-11-05T16:37:37.243Z,20.00
2022-11-05T16:40:23.610Z,18.80
2022-11-05T16:42:53.395Z,18.30
2022-11-05T16:45:24.467Z,17.10
2022-11-05T16:47:53.686Z,13.80
2022-11-05T16:50:32.216Z,12.80
2022-11-05T16:53:00.114Z,13.00
2022-11-05T16:55:28.154Z,13.00
2022-11-05T16:57:56.116Z,15.00
2022-11-05T17:00:24.469Z,22.80
2022-11-05T17:02:52.861Z,18.70
2022-11-05T17:05:32.706Z,22.50
2022-11-05T17:08:01.440Z,18.10
2022-11-05T17:10:29.409Z,18.90
2022-11-05T17:12:57.557Z,17.50
2022-11-05T17:15:31.189Z,17.80
2022-11-05T17:17:59.562Z,17.80
2022-11-05T17:20:40.677Z,17.50
2022-11-05T17:23:11.285Z,16.30
2022-11-05T17:25:41.195Z,16.70
2022-11-05T17:28:09.839Z,19.10
2022-11-05T17:30:41.156Z,15.70
2022-11-05T17:33:11.446Z,12.70
2022-11-05T17:35:41.619Z,17.20
2022-11-05T17:38:10.714Z,13.90
2022-11-05T17:40:39.303Z,12.60
2022-11-05T17:43:07.778Z,15.50
2022-11-05T17:45:42.417Z,15.00
2022-11-05T17:48:10.782Z,14.80
2022-11-05T17:50:43.998Z,17.70
2022-11-05T17:53:12.596Z,13.80
2022-11-05T17:55:44.947Z,15.30
2022-11-05T17:58:13.041Z,15.20
2022-11-05T18:00:41.280Z,14.60
2022-11-05T18:03:10.913Z,15.80
2022-11-05T18:05:40.214Z,12.90
2022-11-05T18:08:08.870Z,16.50
2022-11-05T18:10:38.883Z,14.70
2022-11-05T18:13:06.930Z,12.80
2022-11-05T18:15:36.495Z,16.20
2022-11-05T18:18:04.531Z,13.80
2022-11-05T18:20:33.048Z,14.80
2022-11-05T18:23:00.982Z,17.30
2022-11-05T18:25:28.950Z,17.30
2022-11-05T18:27:56.968Z,15.50
2022-11-05T18:30:24.884Z,14.10
2022-11-05T18:32:54.357Z,14.50
2022-11-05T18:35:23.494Z,16.20
2022-11-05T18:37:51.352Z,17.80
2022-11-05T18:40:19.421Z,18.20
2022-11-05T18:42:48.351Z,16.90
2022-11-05T18:45:16.342Z,17.40
2022-11-05T18:47:44.273Z,16.60
2022-11-05T18:50:12.322Z,20.80
2022-11-05T18:52:40.492Z,21.30
2022-11-05T18:55:09.435Z,15.70
2022-11-05T18:57:37.352Z,17.20
2022-11-05T19:00:06.226Z,19.60
2022-11-05T19:02:34.197Z,21.00
2022-11-05T19:07:52.270Z,16.80
2022-11-05T19:10:20.578Z,18.80
2022-11-05T19:12:50.286Z,14.80
2022-11-05T19:15:18.632Z,15.90
2022-11-05T19:17:46.601Z,21.30
2022-11-05T19:20:17.056Z,19.50
2022-11-05T19:22:44.967Z,14.80
2022-11-05T19:25:18.024Z,18.60
2022-11-05T19:27:46.552Z,19.70
2022-11-05T19:30:14.745Z,17.30
2022-11-05T19:32:42.807Z,17.10
2022-11-05T19:35:11.521Z,21.90
2022-11-05T19:37:39.464Z,18.30
2022-11-05T19:40:09.237Z,18.10
2022-11-05T19:42:37.309Z,19.90
2022-11-05T19:45:23.452Z,16.70
2022-11-05T19:47:54.288Z,15.90
2022-11-05T19:50:22.653Z,20.70
2022-11-05T19:52:50.726Z,18.00
2022-11-05T19:55:18.900Z,19.60
2022-11-05T19:57:46.869Z,15.60
2022-11-05T20:00:15.623Z,18.20
2022-11-05T20:02:46.154Z,18.70
2022-11-05T20:05:14.602Z,19.80
2022-11-05T20:07:45.922Z,21.80
2022-11-05T20:10:18.182Z,21.10
2022-11-05T20:12:46.145Z,17.90
2022-11-05T20:15:15.718Z,17.00
2022-11-05T20:17:50.333Z,18.40
2022-11-05T20:20:18.940Z,17.50
2022-11-05T20:22:47.543Z,17.30
2022-11-05T20:25:33.153Z,18.50
2022-11-05T20:28:01.194Z,20.60
2022-11-05T20:30:29.592Z,21.60
2022-11-05T20:32:57.959Z,17.40
2022-11-05T20:35:25.929Z,18.00
2022-11-05T20:37:54.450Z,20.40
2022-11-05T20:40:22.703Z,19.00
2022-11-05T20:42:50.650Z,21.00
2022-11-05T20:45:18.539Z,21.90
2022-11-05T20:47:46.685Z,29.90
2022-11-05T20:50:14.688Z,29.00
2022-11-05T20:52:42.734Z,199.70
2022-11-05T20:55:11.103Z,72.70
2022-11-05T20:57:39.198Z,77.00
2022-11-05T21:00:08.377Z,24.70
2022-11-05T21:02:38.505Z,24.70
2022-11-05T21:05:10.612Z,22.70
2022-11-05T21:07:38.733Z,33.20
2022-11-05T21:10:07.982Z,21.20
2022-11-05T21:12:36.302Z,16.80
2022-11-05T21:15:05.769Z,20.80
2022-11-05T21:17:33.879Z,26.00
2022-11-05T21:20:02.279Z,28.30
2022-11-05T21:22:30.846Z,66.90
2022-11-05T21:24:58.792Z,41.50
2022-11-05T21:27:26.789Z,36.00
2022-11-05T21:29:54.657Z,35.50
2022-11-05T21:32:22.653Z,38.80
2022-11-05T21:34:50.590Z,41.90
2022-11-05T21:37:20.516Z,39.80
2022-11-05T21:39:48.556Z,40.40
2022-11-05T21:42:16.641Z,34.70
2022-11-05T21:44:44.616Z,32.90
2022-11-05T21:47:13.047Z,30.50
2022-11-05T21:49:40.869Z,29.70
2022-11-05T21:52:30.654Z,25.40
2022-11-05T21:55:34.098Z,29.70
2022-11-05T21:58:28.323Z,31.30
2022-11-05T22:00:56.397Z,32.00
2022-11-05T22:03:24.560Z,28.20
2022-11-05T22:05:52.909Z,27.00
2022-11-05T22:08:20.916Z,36.40
2022-11-05T22:10:48.886Z,25.40
2022-11-05T22:13:16.801Z,30.30
2022-11-05T22:15:55.422Z,28.20
2022-11-05T22:18:23.309Z,29.40
2022-11-05T22:20:51.311Z,22.50
2022-11-05T22:23:19.180Z,24.00
2022-11-05T22:25:47.251Z,23.30
2022-11-05T22:28:15.417Z,27.00
2022-11-05T22:30:43.703Z,21.50
2022-11-05T22:33:11.658Z,19.50
2022-11-05T22:35:39.521Z,20.40
2022-11-05T22:38:07.383Z,20.50
2022-11-05T22:40:35.559Z,21.80
2022-11-05T22:43:04.528Z,20.10
2022-11-05T22:45:36.072Z,18.50
2022-11-05T22:48:08.599Z,21.40
2022-11-05T22:50:36.595Z,20.20
2022-11-05T22:53:05.639Z,20.50
2022-11-05T22:55:34.959Z,23.00
2022-11-05T22:58:03.170Z,26.00
2022-11-05T23:00:36.624Z,19.40
2022-11-05T23:03:04.958Z,21.90
2022-11-05T23:05:36.491Z,23.60
2022-11-05T23:08:24.067Z,25.40
2022-11-05T23:11:11.264Z,21.40
2022-11-05T23:13:39.259Z,25.40
2022-11-05T23:16:26.909Z,23.40
2022-11-05T23:19:13.552Z,23.10
2022-11-05T23:22:00.089Z,24.50
2022-11-05T23:24:27.937Z,22.70
2022-11-05T23:26:58.085Z,23.50
2022-11-05T23:29:28.060Z,21.80
2022-11-05T23:32:17.198Z,22.00
2022-11-05T23:34:45.088Z,25.00
2022-11-05T23:37:31.840Z,24.60
2022-11-05T23:39:59.672Z,23.50
2022-11-05T23:42:46.337Z,28.50
2022-11-05T23:45:34.180Z,27.70
2022-11-05T23:48:35.440Z,22.90
2022-11-05T23:51:11.057Z,20.60
2022-11-05T23:53:40.770Z,23.20
2022-11-05T23:56:13.505Z,24.30
2022-11-05T23:58:43.663Z,27.80
